Airfield :
LOGIN :

Register | Disclaimer

   EN    FR    IT 

 










Legend :    VFR   Marginal VFR   IFR   Intensive IFR   Very Intensive IFR
Visi :
Ceiling :
>= 8 km
>= 3000ft
5 to 8 km
1000 to 3000 ft
1500m to 5 km
500 to 1000 ft
800 to 1500m
200 to 500 ft
< 800m
< 200 ft
Symbols :   Thunderstorms  Fog  Heavy snow  Heavy precipitations  Wind > 20 kt
SIGMETs :     Misc.  Thunderstorms  Icing  Turbulence  Mountain Waves  Volcanic Ashes







- Airport Elevation : 1860 ft
- IATA code : GRX


LEGR - Granada

CURRENT METAR :
  • 202300Z AUTO 00000KT 9000 NCD 11/11 Q1018

EXPIRED METARs :
  • 202230Z AUTO 00000KT 9999 NCD 12/12 Q1018
  • 202200Z 24005KT 8000 FEW018 BKN100 13/12 Q1018
  • 202130Z VRB01KT 8000 FEW018 BKN100 13/12 Q1018
  • 202100Z 00000KT 8000 FEW018 BKN090 13/12 Q1017
  • 202030Z 00000KT 8000 FEW018 BKN090 13/12 Q1017
  • 202000Z 00000KT 8000 FEW025 BKN080 13/13 Q1017

TAF TAF LEGR
Valid from the 20 at 21:00 until the 21 at 21:00 UTC


202000Z 2021/2121 VRB03KT 9999 SCT030 SCT080 TX24/2115Z TN10/2105Z
PROB30
TEMPO 2103/2107 3000 BR
PROB30
TEMPO 2112/2118 SHRA SCT025TCU SCT040
No reported NOTAMs for that airfield.
4 SIGMETs reported for the Madrid FIR (LECM) :
 
Frequent thunderstorms
LECM SIGMET 22 VALID 202300/210100 LEVA
LECM MADRID FIR/UIR FRQ TS FCST WI N3628 W00522 - N3749 W00521 - N3743 W00419 - N3618 W00434 - N3628 W00522 TOP FL380 STNR NC=
Severe turbulence
LECM SIGMET 19 VALID 202300/210300 LEVA
LECM MADRID UIR SEV TURB FCST WI N4211 W00844 - N4247 W00845 - N4323 W00146 - N4245 W00102 - N4211 W00844 FL270/330 STNR WKN=
Embedded thunderstorms
LECM SIGMET 18 VALID 202100/202300 LEVA
LECM MADRID FIR/UIR EMBD TS FCST WI N3855 W00608 - N3954 W00641 - N4018 W00554 - N3921 W00457 - N3855 W00608 TOP FL380 STNR NC=
LECM SIGMET 17 VALID 202100/202300 LEVA
LECM MADRID FIR/UIR FRQ FCST WI N3603 W00526 - N3804 W00603 - N3810 W00438 - N3605 W00420 - N3603 W00526 TOP FL380 STNR NC=



MET'MAP, your aeronautical weather chart ! - Copyright ORBIFLY December 2007 - Disclaimer

ORBIFLY MET'MAP TEAM :

Programming & Development : Alexandra Zaïnal
Concept & Development : Baudouin d'Aumeries
Co-Development & Prog : Marc-Olivier Méhu
Technical & hardware support : Manuel Goepfert

Contact : metmap@orbifly.com




SOURCES & CREDITS :

   NOAA